sensor_id;sensor_type;location;lat;lon;timestamp;P1;durP1;ratioP1;P2;durP2;ratioP2
71164;SDS011;58859;55.132;-1.586;2024-03-07T00:02:16;40.95;;;15.32;;
71164;SDS011;58859;55.132;-1.586;2024-03-07T00:04:42;39.13;;;14.40;;
71164;SDS011;58859;55.132;-1.586;2024-03-07T00:07:08;41.42;;;15.20;;
71164;SDS011;58859;55.132;-1.586;2024-03-07T00:09:34;41.33;;;15.07;;
71164;SDS011;58859;55.132;-1.586;2024-03-07T00:12:00;41.65;;;14.60;;
71164;SDS011;58859;55.132;-1.586;2024-03-07T00:14:26;43.15;;;16.25;;
71164;SDS011;58859;55.132;-1.586;2024-03-07T00:16:58;51.87;;;17.03;;
71164;SDS011;58859;55.132;-1.586;2024-03-07T00:19:27;42.20;;;16.63;;
71164;SDS011;58859;55.132;-1.586;2024-03-07T00:21:54;43.22;;;14.48;;
71164;SDS011;58859;55.132;-1.586;2024-03-07T00:24:23;48.28;;;15.57;;
71164;SDS011;58859;55.132;-1.586;2024-03-07T00:26:49;37.20;;;13.70;;
71164;SDS011;58859;55.132;-1.586;2024-03-07T00:29:16;39.92;;;14.88;;
71164;SDS011;58859;55.132;-1.586;2024-03-07T00:31:43;43.78;;;15.40;;
71164;SDS011;58859;55.132;-1.586;2024-03-07T00:34:09;32.58;;;14.45;;
71164;SDS011;58859;55.132;-1.586;2024-03-07T00:36:35;37.87;;;14.87;;
71164;SDS011;58859;55.132;-1.586;2024-03-07T00:39:00;43.95;;;15.15;;
71164;SDS011;58859;55.132;-1.586;2024-03-07T00:41:26;34.75;;;14.18;;
71164;SDS011;58859;55.132;-1.586;2024-03-07T00:43:51;38.27;;;15.03;;
71164;SDS011;58859;55.132;-1.586;2024-03-07T00:46:16;42.47;;;14.63;;
71164;SDS011;58859;55.132;-1.586;2024-03-07T00:48:42;41.93;;;15.10;;
71164;SDS011;58859;55.132;-1.586;2024-03-07T00:51:07;38.67;;;16.23;;
71164;SDS011;58859;55.132;-1.586;2024-03-07T00:53:34;39.95;;;15.48;;
71164;SDS011;58859;55.132;-1.586;2024-03-07T00:55:59;37.90;;;14.97;;
71164;SDS011;58859;55.132;-1.586;2024-03-07T00:58:24;39.40;;;14.03;;
71164;SDS011;58859;55.132;-1.586;2024-03-07T01:00:50;31.60;;;13.60;;
71164;SDS011;58859;55.132;-1.586;2024-03-07T01:03:15;43.67;;;15.30;;
71164;SDS011;58859;55.132;-1.586;2024-03-07T01:05:42;37.10;;;13.82;;
71164;SDS011;58859;55.132;-1.586;2024-03-07T01:08:08;39.42;;;14.45;;
71164;SDS011;58859;55.132;-1.586;2024-03-07T01:10:34;31.50;;;13.70;;
71164;SDS011;58859;55.132;-1.586;2024-03-07T01:13:00;37.93;;;14.03;;
71164;SDS011;58859;55.132;-1.586;2024-03-07T01:15:27;41.72;;;14.10;;
71164;SDS011;58859;55.132;-1.586;2024-03-07T01:17:53;38.22;;;14.80;;
71164;SDS011;58859;55.132;-1.586;2024-03-07T01:20:18;39.77;;;13.90;;
71164;SDS011;58859;55.132;-1.586;2024-03-07T01:22:44;43.88;;;14.45;;
71164;SDS011;58859;55.132;-1.586;2024-03-07T01:25:10;43.37;;;15.17;;
71164;SDS011;58859;55.132;-1.586;2024-03-07T01:27:37;38.72;;;15.05;;
71164;SDS011;58859;55.132;-1.586;2024-03-07T01:30:02;40.87;;;14.50;;
71164;SDS011;58859;55.132;-1.586;2024-03-07T01:32:28;37.50;;;14.20;;
71164;SDS011;58859;55.132;-1.586;2024-03-07T01:34:55;40.13;;;14.23;;
71164;SDS011;58859;55.132;-1.586;2024-03-07T01:37:20;40.08;;;14.50;;
71164;SDS011;58859;55.132;-1.586;2024-03-07T01:39:46;38.30;;;14.50;;
71164;SDS011;58859;55.132;-1.586;2024-03-07T01:42:12;43.40;;;14.93;;
71164;SDS011;58859;55.132;-1.586;2024-03-07T01:44:37;38.53;;;14.18;;
71164;SDS011;58859;55.132;-1.586;2024-03-07T01:47:05;37.88;;;14.00;;
71164;SDS011;58859;55.132;-1.586;2024-03-07T01:49:31;34.00;;;13.03;;
71164;SDS011;58859;55.132;-1.586;2024-03-07T01:51:57;38.28;;;13.77;;
71164;SDS011;58859;55.132;-1.586;2024-03-07T01:54:23;35.80;;;13.05;;
71164;SDS011;58859;55.132;-1.586;2024-03-07T01:56:51;39.13;;;13.73;;
71164;SDS011;58859;55.132;-1.586;2024-03-07T01:59:17;37.33;;;13.77;;
71164;SDS011;58859;55.132;-1.586;2024-03-07T02:01:45;33.88;;;12.80;;
71164;SDS011;58859;55.132;-1.586;2024-03-07T02:04:11;35.75;;;13.80;;
71164;SDS011;58859;55.132;-1.586;2024-03-07T02:06:37;36.63;;;12.87;;
71164;SDS011;58859;55.132;-1.586;2024-03-07T02:09:03;38.55;;;12.18;;
71164;SDS011;58859;55.132;-1.586;2024-03-07T02:11:30;40.63;;;13.93;;
71164;SDS011;58859;55.132;-1.586;2024-03-07T02:13:56;43.40;;;15.27;;
71164;SDS011;58859;55.132;-1.586;2024-03-07T02:16:21;43.00;;;14.93;;
71164;SDS011;58859;55.132;-1.586;2024-03-07T02:18:47;40.53;;;15.63;;
71164;SDS011;58859;55.132;-1.586;2024-03-07T02:21:13;39.58;;;14.32;;
71164;SDS011;58859;55.132;-1.586;2024-03-07T02:23:39;38.23;;;14.17;;
71164;SDS011;58859;55.132;-1.586;2024-03-07T02:26:06;41.03;;;13.45;;
71164;SDS011;58859;55.132;-1.586;2024-03-07T02:28:33;46.22;;;14.57;;
71164;SDS011;58859;55.132;-1.586;2024-03-07T02:30:59;38.97;;;14.00;;
71164;SDS011;58859;55.132;-1.586;2024-03-07T02:33:25;43.93;;;13.93;;
71164;SDS011;58859;55.132;-1.586;2024-03-07T02:35:50;39.60;;;14.25;;
71164;SDS011;58859;55.132;-1.586;2024-03-07T02:38:16;36.28;;;14.02;;
71164;SDS011;58859;55.132;-1.586;2024-03-07T02:40:42;43.23;;;13.33;;
71164;SDS011;58859;55.132;-1.586;2024-03-07T02:43:08;35.08;;;13.93;;
71164;SDS011;58859;55.132;-1.586;2024-03-07T02:45:33;35.77;;;14.57;;
71164;SDS011;58859;55.132;-1.586;2024-03-07T02:47:58;42.77;;;15.20;;
71164;SDS011;58859;55.132;-1.586;2024-03-07T02:50:24;37.33;;;16.07;;
71164;SDS011;58859;55.132;-1.586;2024-03-07T02:52:49;38.60;;;13.73;;
71164;SDS011;58859;55.132;-1.586;2024-03-07T02:55:17;41.10;;;13.75;;
71164;SDS011;58859;55.132;-1.586;2024-03-07T02:57:44;34.42;;;15.57;;
71164;SDS011;58859;55.132;-1.586;2024-03-07T03:00:10;34.25;;;14.82;;
71164;SDS011;58859;55.132;-1.586;2024-03-07T03:02:46;28.33;;;12.20;;
71164;SDS011;58859;55.132;-1.586;2024-03-07T03:05:13;36.70;;;14.15;;
71164;SDS011;58859;55.132;-1.586;2024-03-07T03:07:39;41.28;;;15.20;;
71164;SDS011;58859;55.132;-1.586;2024-03-07T03:10:06;34.65;;;14.02;;
71164;SDS011;58859;55.132;-1.586;2024-03-07T03:12:35;47.35;;;15.05;;
71164;SDS011;58859;55.132;-1.586;2024-03-07T03:15:02;37.67;;;15.20;;
71164;SDS011;58859;55.132;-1.586;2024-03-07T03:17:30;34.58;;;13.70;;
71164;SDS011;58859;55.132;-1.586;2024-03-07T03:19:56;38.20;;;16.30;;
71164;SDS011;58859;55.132;-1.586;2024-03-07T03:22:21;37.67;;;15.07;;
71164;SDS011;58859;55.132;-1.586;2024-03-07T03:24:47;36.63;;;13.17;;
71164;SDS011;58859;55.132;-1.586;2024-03-07T03:27:12;29.07;;;13.37;;
71164;SDS011;58859;55.132;-1.586;2024-03-07T03:29:38;34.78;;;13.93;;
71164;SDS011;58859;55.132;-1.586;2024-03-07T03:32:03;30.55;;;12.68;;
71164;SDS011;58859;55.132;-1.586;2024-03-07T03:34:29;33.03;;;12.83;;
71164;SDS011;58859;55.132;-1.586;2024-03-07T03:36:54;32.97;;;13.00;;
71164;SDS011;58859;55.132;-1.586;2024-03-07T03:39:19;33.90;;;14.37;;
71164;SDS011;58859;55.132;-1.586;2024-03-07T03:41:45;28.02;;;11.80;;
71164;SDS011;58859;55.132;-1.586;2024-03-07T03:44:11;28.70;;;12.20;;
71164;SDS011;58859;55.132;-1.586;2024-03-07T03:46:37;26.83;;;11.60;;
71164;SDS011;58859;55.132;-1.586;2024-03-07T03:49:02;26.10;;;11.60;;
71164;SDS011;58859;55.132;-1.586;2024-03-07T03:51:27;32.00;;;13.53;;
71164;SDS011;58859;55.132;-1.586;2024-03-07T03:53:53;27.05;;;12.13;;
71164;SDS011;58859;55.132;-1.586;2024-03-07T03:56:19;26.63;;;11.03;;
71164;SDS011;58859;55.132;-1.586;2024-03-07T03:58:44;30.97;;;12.40;;
71164;SDS011;58859;55.132;-1.586;2024-03-07T04:01:09;30.10;;;11.95;;
71164;SDS011;58859;55.132;-1.586;2024-03-07T04:03:38;29.90;;;12.83;;
71164;SDS011;58859;55.132;-1.586;2024-03-07T04:06:04;35.58;;;11.55;;
71164;SDS011;58859;55.132;-1.586;2024-03-07T04:08:30;30.10;;;12.43;;
71164;SDS011;58859;55.132;-1.586;2024-03-07T04:10:55;25.47;;;12.07;;
71164;SDS011;58859;55.132;-1.586;2024-03-07T04:13:21;31.60;;;12.50;;
71164;SDS011;58859;55.132;-1.586;2024-03-07T04:15:47;27.63;;;11.38;;
71164;SDS011;58859;55.132;-1.586;2024-03-07T04:18:13;28.70;;;13.88;;
71164;SDS011;58859;55.132;-1.586;2024-03-07T04:20:38;25.40;;;11.13;;
71164;SDS011;58859;55.132;-1.586;2024-03-07T04:23:04;27.70;;;12.52;;
71164;SDS011;58859;55.132;-1.586;2024-03-07T04:25:31;33.15;;;12.35;;
71164;SDS011;58859;55.132;-1.586;2024-03-07T04:27:58;29.52;;;12.20;;
71164;SDS011;58859;55.132;-1.586;2024-03-07T04:30:24;31.52;;;12.02;;
71164;SDS011;58859;55.132;-1.586;2024-03-07T04:32:49;31.00;;;13.10;;
71164;SDS011;58859;55.132;-1.586;2024-03-07T04:35:15;34.30;;;13.60;;
71164;SDS011;58859;55.132;-1.586;2024-03-07T04:37:40;29.92;;;12.95;;
71164;SDS011;58859;55.132;-1.586;2024-03-07T04:40:07;30.83;;;13.30;;
71164;SDS011;58859;55.132;-1.586;2024-03-07T04:42:44;33.60;;;13.95;;
71164;SDS011;58859;55.132;-1.586;2024-03-07T04:45:10;24.50;;;12.30;;
71164;SDS011;58859;55.132;-1.586;2024-03-07T04:47:40;26.95;;;12.32;;
71164;SDS011;58859;55.132;-1.586;2024-03-07T04:50:06;34.38;;;13.23;;
71164;SDS011;58859;55.132;-1.586;2024-03-07T04:52:32;31.57;;;13.03;;
71164;SDS011;58859;55.132;-1.586;2024-03-07T04:54:58;32.67;;;13.23;;
71164;SDS011;58859;55.132;-1.586;2024-03-07T04:57:23;32.30;;;12.97;;
71164;SDS011;58859;55.132;-1.586;2024-03-07T04:59:49;28.05;;;12.23;;
71164;SDS011;58859;55.132;-1.586;2024-03-07T05:02:15;33.13;;;13.60;;
71164;SDS011;58859;55.132;-1.586;2024-03-07T05:04:40;35.27;;;14.13;;
71164;SDS011;58859;55.132;-1.586;2024-03-07T05:07:06;31.50;;;12.97;;
71164;SDS011;58859;55.132;-1.586;2024-03-07T05:09:31;34.60;;;14.03;;
71164;SDS011;58859;55.132;-1.586;2024-03-07T05:11:58;30.40;;;11.95;;
71164;SDS011;58859;55.132;-1.586;2024-03-07T05:14:24;32.40;;;13.50;;
71164;SDS011;58859;55.132;-1.586;2024-03-07T05:16:50;31.05;;;14.23;;
71164;SDS011;58859;55.132;-1.586;2024-03-07T05:19:36;37.60;;;15.30;;
71164;SDS011;58859;55.132;-1.586;2024-03-07T05:22:02;32.97;;;14.13;;
71164;SDS011;58859;55.132;-1.586;2024-03-07T05:24:30;31.20;;;14.60;;
71164;SDS011;58859;55.132;-1.586;2024-03-07T05:26:57;31.00;;;15.00;;
71164;SDS011;58859;55.132;-1.586;2024-03-07T05:29:23;32.08;;;14.18;;
71164;SDS011;58859;55.132;-1.586;2024-03-07T05:31:49;31.93;;;15.17;;
71164;SDS011;58859;55.132;-1.586;2024-03-07T05:34:15;36.17;;;16.40;;
71164;SDS011;58859;55.132;-1.586;2024-03-07T05:36:43;33.60;;;15.95;;
71164;SDS011;58859;55.132;-1.586;2024-03-07T05:39:11;35.65;;;13.68;;
71164;SDS011;58859;55.132;-1.586;2024-03-07T05:41:41;32.90;;;14.00;;
71164;SDS011;58859;55.132;-1.586;2024-03-07T05:44:07;32.55;;;15.20;;
71164;SDS011;58859;55.132;-1.586;2024-03-07T05:46:34;35.67;;;16.23;;
71164;SDS011;58859;55.132;-1.586;2024-03-07T05:49:00;37.05;;;17.13;;
71164;SDS011;58859;55.132;-1.586;2024-03-07T05:51:25;40.43;;;17.50;;
71164;SDS011;58859;55.132;-1.586;2024-03-07T05:53:51;36.80;;;17.03;;
71164;SDS011;58859;55.132;-1.586;2024-03-07T05:56:16;40.23;;;16.97;;
71164;SDS011;58859;55.132;-1.586;2024-03-07T05:58:42;30.67;;;15.10;;
71164;SDS011;58859;55.132;-1.586;2024-03-07T06:01:08;29.27;;;14.73;;
71164;SDS011;58859;55.132;-1.586;2024-03-07T06:03:36;39.42;;;16.90;;
71164;SDS011;58859;55.132;-1.586;2024-03-07T06:06:01;33.47;;;14.73;;
71164;SDS011;58859;55.132;-1.586;2024-03-07T06:08:27;35.08;;;16.38;;
71164;SDS011;58859;55.132;-1.586;2024-03-07T06:10:52;37.80;;;17.67;;
71164;SDS011;58859;55.132;-1.586;2024-03-07T06:13:18;34.40;;;16.10;;
71164;SDS011;58859;55.132;-1.586;2024-03-07T06:15:44;36.37;;;15.60;;
71164;SDS011;58859;55.132;-1.586;2024-03-07T06:18:10;42.05;;;18.05;;
71164;SDS011;58859;55.132;-1.586;2024-03-07T06:20:42;40.10;;;17.27;;
71164;SDS011;58859;55.132;-1.586;2024-03-07T06:23:08;42.38;;;18.30;;
71164;SDS011;58859;55.132;-1.586;2024-03-07T06:25:35;42.15;;;17.70;;
71164;SDS011;58859;55.132;-1.586;2024-03-07T06:28:15;36.97;;;17.13;;
71164;SDS011;58859;55.132;-1.586;2024-03-07T06:30:45;37.28;;;17.23;;
71164;SDS011;58859;55.132;-1.586;2024-03-07T06:33:11;40.17;;;17.48;;
71164;SDS011;58859;55.132;-1.586;2024-03-07T06:35:38;36.50;;;15.60;;
71164;SDS011;58859;55.132;-1.586;2024-03-07T06:38:05;38.58;;;15.38;;
71164;SDS011;58859;55.132;-1.586;2024-03-07T06:40:31;38.67;;;17.03;;
71164;SDS011;58859;55.132;-1.586;2024-03-07T06:43:00;40.35;;;18.05;;
71164;SDS011;58859;55.132;-1.586;2024-03-07T06:45:28;34.78;;;16.88;;
71164;SDS011;58859;55.132;-1.586;2024-03-07T06:47:54;33.78;;;16.98;;
71164;SDS011;58859;55.132;-1.586;2024-03-07T06:50:20;40.53;;;16.63;;
71164;SDS011;58859;55.132;-1.586;2024-03-07T06:52:46;36.85;;;16.85;;
71164;SDS011;58859;55.132;-1.586;2024-03-07T06:55:16;37.60;;;15.93;;
71164;SDS011;58859;55.132;-1.586;2024-03-07T06:57:42;34.67;;;15.60;;
71164;SDS011;58859;55.132;-1.586;2024-03-07T07:00:09;33.30;;;15.33;;
71164;SDS011;58859;55.132;-1.586;2024-03-07T07:02:39;34.40;;;15.13;;
71164;SDS011;58859;55.132;-1.586;2024-03-07T07:05:06;28.50;;;14.68;;
71164;SDS011;58859;55.132;-1.586;2024-03-07T07:07:36;28.17;;;13.15;;
71164;SDS011;58859;55.132;-1.586;2024-03-07T07:10:03;21.55;;;11.52;;
71164;SDS011;58859;55.132;-1.586;2024-03-07T07:12:29;26.33;;;13.37;;
71164;SDS011;58859;55.132;-1.586;2024-03-07T07:14:54;29.63;;;13.60;;
71164;SDS011;58859;55.132;-1.586;2024-03-07T07:17:20;29.10;;;14.00;;
71164;SDS011;58859;55.132;-1.586;2024-03-07T07:19:45;27.57;;;13.40;;
71164;SDS011;58859;55.132;-1.586;2024-03-07T07:22:11;25.52;;;12.93;;
71164;SDS011;58859;55.132;-1.586;2024-03-07T07:24:37;30.70;;;13.93;;
71164;SDS011;58859;55.132;-1.586;2024-03-07T07:27:03;23.17;;;12.52;;
71164;SDS011;58859;55.132;-1.586;2024-03-07T07:29:28;22.97;;;11.63;;
71164;SDS011;58859;55.132;-1.586;2024-03-07T07:31:54;22.42;;;11.55;;
71164;SDS011;58859;55.132;-1.586;2024-03-07T07:34:20;26.70;;;12.73;;
71164;SDS011;58859;55.132;-1.586;2024-03-07T07:36:45;22.97;;;12.30;;
71164;SDS011;58859;55.132;-1.586;2024-03-07T07:39:11;20.58;;;11.10;;
71164;SDS011;58859;55.132;-1.586;2024-03-07T07:41:42;17.57;;;10.77;;
71164;SDS011;58859;55.132;-1.586;2024-03-07T07:44:07;16.55;;;8.55;;
71164;SDS011;58859;55.132;-1.586;2024-03-07T07:46:33;17.92;;;10.30;;
71164;SDS011;58859;55.132;-1.586;2024-03-07T07:48:59;14.00;;;6.32;;
71164;SDS011;58859;55.132;-1.586;2024-03-07T07:51:25;17.42;;;9.95;;
71164;SDS011;58859;55.132;-1.586;2024-03-07T07:53:51;21.13;;;8.23;;
71164;SDS011;58859;55.132;-1.586;2024-03-07T07:56:19;19.08;;;11.82;;
71164;SDS011;58859;55.132;-1.586;2024-03-07T07:58:45;17.60;;;10.27;;
71164;SDS011;58859;55.132;-1.586;2024-03-07T08:01:11;21.13;;;10.88;;
71164;SDS011;58859;55.132;-1.586;2024-03-07T08:03:36;19.13;;;11.43;;
71164;SDS011;58859;55.132;-1.586;2024-03-07T08:06:03;21.55;;;10.93;;
71164;SDS011;58859;55.132;-1.586;2024-03-07T08:08:28;16.55;;;9.43;;
71164;SDS011;58859;55.132;-1.586;2024-03-07T08:10:54;20.48;;;12.13;;
71164;SDS011;58859;55.132;-1.586;2024-03-07T08:13:19;25.33;;;12.97;;
71164;SDS011;58859;55.132;-1.586;2024-03-07T08:15:45;23.87;;;11.10;;
71164;SDS011;58859;55.132;-1.586;2024-03-07T08:18:10;25.48;;;12.27;;
71164;SDS011;58859;55.132;-1.586;2024-03-07T08:20:36;26.20;;;12.60;;
71164;SDS011;58859;55.132;-1.586;2024-03-07T08:23:02;21.95;;;11.05;;
71164;SDS011;58859;55.132;-1.586;2024-03-07T08:25:28;23.17;;;12.47;;
71164;SDS011;58859;55.132;-1.586;2024-03-07T08:27:55;26.10;;;12.95;;
71164;SDS011;58859;55.132;-1.586;2024-03-07T08:30:23;30.63;;;12.82;;
71164;SDS011;58859;55.132;-1.586;2024-03-07T08:32:53;31.27;;;14.10;;
71164;SDS011;58859;55.132;-1.586;2024-03-07T08:35:20;30.00;;;13.97;;
71164;SDS011;58859;55.132;-1.586;2024-03-07T08:37:47;27.58;;;13.82;;
71164;SDS011;58859;55.132;-1.586;2024-03-07T08:40:20;28.42;;;12.93;;
71164;SDS011;58859;55.132;-1.586;2024-03-07T08:42:47;20.75;;;10.52;;
71164;SDS011;58859;55.132;-1.586;2024-03-07T08:45:16;27.20;;;12.88;;
71164;SDS011;58859;55.132;-1.586;2024-03-07T08:47:44;29.07;;;13.27;;
71164;SDS011;58859;55.132;-1.586;2024-03-07T08:50:13;27.15;;;13.00;;
71164;SDS011;58859;55.132;-1.586;2024-03-07T08:52:41;29.45;;;13.65;;
71164;SDS011;58859;55.132;-1.586;2024-03-07T08:55:08;24.58;;;12.65;;
71164;SDS011;58859;55.132;-1.586;2024-03-07T08:57:37;22.63;;;11.45;;
71164;SDS011;58859;55.132;-1.586;2024-03-07T09:00:03;19.70;;;10.70;;
71164;SDS011;58859;55.132;-1.586;2024-03-07T09:02:36;27.42;;;13.23;;
71164;SDS011;58859;55.132;-1.586;2024-03-07T09:05:03;22.67;;;12.07;;
71164;SDS011;58859;55.132;-1.586;2024-03-07T09:07:29;20.85;;;8.90;;
71164;SDS011;58859;55.132;-1.586;2024-03-07T09:09:55;21.53;;;10.80;;
71164;SDS011;58859;55.132;-1.586;2024-03-07T09:12:21;24.42;;;9.98;;
71164;SDS011;58859;55.132;-1.586;2024-03-07T09:14:46;22.30;;;11.17;;
71164;SDS011;58859;55.132;-1.586;2024-03-07T09:17:12;28.83;;;14.07;;
71164;SDS011;58859;55.132;-1.586;2024-03-07T09:19:37;29.52;;;13.98;;
71164;SDS011;58859;55.132;-1.586;2024-03-07T09:22:03;24.07;;;10.57;;
71164;SDS011;58859;55.132;-1.586;2024-03-07T09:24:29;29.27;;;12.85;;
71164;SDS011;58859;55.132;-1.586;2024-03-07T09:26:56;37.63;;;15.73;;
71164;SDS011;58859;55.132;-1.586;2024-03-07T09:29:22;22.30;;;10.90;;
71164;SDS011;58859;55.132;-1.586;2024-03-07T09:31:51;28.80;;;13.05;;
71164;SDS011;58859;55.132;-1.586;2024-03-07T09:34:17;30.65;;;13.07;;
71164;SDS011;58859;55.132;-1.586;2024-03-07T09:36:44;31.93;;;14.97;;
71164;SDS011;58859;55.132;-1.586;2024-03-07T09:39:09;33.22;;;14.75;;
71164;SDS011;58859;55.132;-1.586;2024-03-07T09:41:37;31.17;;;14.15;;
71164;SDS011;58859;55.132;-1.586;2024-03-07T09:44:04;27.90;;;13.77;;
71164;SDS011;58859;55.132;-1.586;2024-03-07T09:46:30;28.27;;;13.17;;
71164;SDS011;58859;55.132;-1.586;2024-03-07T09:48:56;35.53;;;15.05;;
71164;SDS011;58859;55.132;-1.586;2024-03-07T09:51:23;33.50;;;13.23;;
71164;SDS011;58859;55.132;-1.586;2024-03-07T09:53:50;27.33;;;11.93;;
71164;SDS011;58859;55.132;-1.586;2024-03-07T09:56:19;34.47;;;13.38;;
71164;SDS011;58859;55.132;-1.586;2024-03-07T09:58:48;30.43;;;13.70;;
71164;SDS011;58859;55.132;-1.586;2024-03-07T10:01:15;31.85;;;14.10;;
71164;SDS011;58859;55.132;-1.586;2024-03-07T10:03:44;33.67;;;14.35;;
71164;SDS011;58859;55.132;-1.586;2024-03-07T10:06:12;27.63;;;13.45;;
71164;SDS011;58859;55.132;-1.586;2024-03-07T10:08:38;39.72;;;16.80;;
71164;SDS011;58859;55.132;-1.586;2024-03-07T10:11:05;44.13;;;19.10;;
71164;SDS011;58859;55.132;-1.586;2024-03-07T10:13:33;30.17;;;12.48;;
71164;SDS011;58859;55.132;-1.586;2024-03-07T10:16:00;40.00;;;16.13;;
71164;SDS011;58859;55.132;-1.586;2024-03-07T10:18:26;39.85;;;16.75;;
71164;SDS011;58859;55.132;-1.586;2024-03-07T10:20:54;27.90;;;11.90;;
71164;SDS011;58859;55.132;-1.586;2024-03-07T10:23:20;46.92;;;17.35;;
71164;SDS011;58859;55.132;-1.586;2024-03-07T10:25:52;39.80;;;15.02;;
71164;SDS011;58859;55.132;-1.586;2024-03-07T10:28:19;49.23;;;19.80;;
71164;SDS011;58859;55.132;-1.586;2024-03-07T10:30:46;32.47;;;14.93;;
71164;SDS011;58859;55.132;-1.586;2024-03-07T10:33:16;43.42;;;19.20;;
71164;SDS011;58859;55.132;-1.586;2024-03-07T10:35:42;46.15;;;18.08;;
71164;SDS011;58859;55.132;-1.586;2024-03-07T10:38:14;44.28;;;20.92;;
71164;SDS011;58859;55.132;-1.586;2024-03-07T10:40:40;42.93;;;18.33;;
71164;SDS011;58859;55.132;-1.586;2024-03-07T10:43:11;48.88;;;19.83;;
71164;SDS011;58859;55.132;-1.586;2024-03-07T10:45:42;40.67;;;15.35;;
71164;SDS011;58859;55.132;-1.586;2024-03-07T10:48:13;25.27;;;11.48;;
71164;SDS011;58859;55.132;-1.586;2024-03-07T10:56:35;50.38;;;21.15;;
71164;SDS011;58859;55.132;-1.586;2024-03-07T10:59:17;50.55;;;20.52;;
71164;SDS011;58859;55.132;-1.586;2024-03-07T11:02:30;49.22;;;17.45;;
71164;SDS011;58859;55.132;-1.586;2024-03-07T11:04:29;45.93;;;17.73;;
71164;SDS011;58859;55.132;-1.586;2024-03-07T11:06:56;49.80;;;19.17;;
71164;SDS011;58859;55.132;-1.586;2024-03-07T11:09:24;49.15;;;20.92;;
71164;SDS011;58859;55.132;-1.586;2024-03-07T11:11:54;54.95;;;22.35;;
71164;SDS011;58859;55.132;-1.586;2024-03-07T11:14:21;52.72;;;21.92;;
71164;SDS011;58859;55.132;-1.586;2024-03-07T11:16:48;45.80;;;18.87;;
71164;SDS011;58859;55.132;-1.586;2024-03-07T11:19:24;58.28;;;21.27;;
71164;SDS011;58859;55.132;-1.586;2024-03-07T11:21:55;56.50;;;21.45;;
71164;SDS011;58859;55.132;-1.586;2024-03-07T11:24:27;33.53;;;14.50;;
71164;SDS011;58859;55.132;-1.586;2024-03-07T11:26:56;44.78;;;19.10;;
71164;SDS011;58859;55.132;-1.586;2024-03-07T11:29:38;30.87;;;12.87;;
71164;SDS011;58859;55.132;-1.586;2024-03-07T11:32:28;38.13;;;16.05;;
71164;SDS011;58859;55.132;-1.586;2024-03-07T11:34:54;50.42;;;20.20;;
71164;SDS011;58859;55.132;-1.586;2024-03-07T11:37:20;51.70;;;19.50;;
71164;SDS011;58859;55.132;-1.586;2024-03-07T11:40:06;44.53;;;17.58;;
71164;SDS011;58859;55.132;-1.586;2024-03-07T11:42:33;37.28;;;14.38;;
71164;SDS011;58859;55.132;-1.586;2024-03-07T11:45:00;46.25;;;20.50;;
71164;SDS011;58859;55.132;-1.586;2024-03-07T11:47:34;45.33;;;19.03;;
71164;SDS011;58859;55.132;-1.586;2024-03-07T11:50:03;43.55;;;17.63;;
71164;SDS011;58859;55.132;-1.586;2024-03-07T11:52:33;40.58;;;17.55;;
71164;SDS011;58859;55.132;-1.586;2024-03-07T11:54:59;38.77;;;14.37;;
71164;SDS011;58859;55.132;-1.586;2024-03-07T11:57:28;41.72;;;16.85;;
71164;SDS011;58859;55.132;-1.586;2024-03-07T12:00:00;40.70;;;17.25;;
71164;SDS011;58859;55.132;-1.586;2024-03-07T12:02:33;44.90;;;17.38;;
71164;SDS011;58859;55.132;-1.586;2024-03-07T12:04:58;36.73;;;14.87;;
71164;SDS011;58859;55.132;-1.586;2024-03-07T12:07:25;35.78;;;14.88;;
71164;SDS011;58859;55.132;-1.586;2024-03-07T12:09:51;30.83;;;12.07;;
71164;SDS011;58859;55.132;-1.586;2024-03-07T12:12:21;28.98;;;12.82;;
71164;SDS011;58859;55.132;-1.586;2024-03-07T12:14:47;27.87;;;12.87;;
71164;SDS011;58859;55.132;-1.586;2024-03-07T12:17:15;39.55;;;14.05;;
71164;SDS011;58859;55.132;-1.586;2024-03-07T12:19:41;34.10;;;14.52;;
71164;SDS011;58859;55.132;-1.586;2024-03-07T12:22:11;44.33;;;17.00;;
71164;SDS011;58859;55.132;-1.586;2024-03-07T12:24:40;39.70;;;15.77;;
71164;SDS011;58859;55.132;-1.586;2024-03-07T12:27:06;29.58;;;13.18;;
71164;SDS011;58859;55.132;-1.586;2024-03-07T12:29:34;36.05;;;15.95;;
71164;SDS011;58859;55.132;-1.586;2024-03-07T12:32:01;30.30;;;12.98;;
71164;SDS011;58859;55.132;-1.586;2024-03-07T12:34:26;35.57;;;15.30;;
71164;SDS011;58859;55.132;-1.586;2024-03-07T12:36:52;44.78;;;18.30;;
71164;SDS011;58859;55.132;-1.586;2024-03-07T12:39:27;27.83;;;13.63;;
71164;SDS011;58859;55.132;-1.586;2024-03-07T12:41:58;39.20;;;15.17;;
71164;SDS011;58859;55.132;-1.586;2024-03-07T12:44:23;34.53;;;13.30;;
71164;SDS011;58859;55.132;-1.586;2024-03-07T12:46:52;35.73;;;15.90;;
71164;SDS011;58859;55.132;-1.586;2024-03-07T12:49:24;29.73;;;12.13;;
71164;SDS011;58859;55.132;-1.586;2024-03-07T12:51:55;34.28;;;13.38;;
71164;SDS011;58859;55.132;-1.586;2024-03-07T12:54:22;34.70;;;15.50;;
71164;SDS011;58859;55.132;-1.586;2024-03-07T12:56:47;20.63;;;9.40;;
71164;SDS011;58859;55.132;-1.586;2024-03-07T12:59:15;34.75;;;15.95;;
71164;SDS011;58859;55.132;-1.586;2024-03-07T13:01:41;26.88;;;12.02;;
71164;SDS011;58859;55.132;-1.586;2024-03-07T13:04:10;37.28;;;14.43;;
71164;SDS011;58859;55.132;-1.586;2024-03-07T13:06:36;30.63;;;12.07;;
71164;SDS011;58859;55.132;-1.586;2024-03-07T13:09:02;34.92;;;13.80;;
71164;SDS011;58859;55.132;-1.586;2024-03-07T13:11:35;27.20;;;11.27;;
71164;SDS011;58859;55.132;-1.586;2024-03-07T13:14:05;27.92;;;13.35;;
71164;SDS011;58859;55.132;-1.586;2024-03-07T13:16:32;32.80;;;14.23;;
71164;SDS011;58859;55.132;-1.586;2024-03-07T13:18:57;31.83;;;13.40;;
71164;SDS011;58859;55.132;-1.586;2024-03-07T13:21:23;23.07;;;11.43;;
71164;SDS011;58859;55.132;-1.586;2024-03-07T13:23:48;28.93;;;12.97;;
71164;SDS011;58859;55.132;-1.586;2024-03-07T13:26:17;22.73;;;8.67;;
71164;SDS011;58859;55.132;-1.586;2024-03-07T13:28:49;27.73;;;12.85;;
71164;SDS011;58859;55.132;-1.586;2024-03-07T13:31:16;32.30;;;12.32;;
71164;SDS011;58859;55.132;-1.586;2024-03-07T13:33:42;19.67;;;8.43;;
71164;SDS011;58859;55.132;-1.586;2024-03-07T13:36:08;26.77;;;12.17;;
71164;SDS011;58859;55.132;-1.586;2024-03-07T13:38:34;27.52;;;12.05;;
71164;SDS011;58859;55.132;-1.586;2024-03-07T13:41:00;25.60;;;12.00;;
71164;SDS011;58859;55.132;-1.586;2024-03-07T13:43:28;28.38;;;13.02;;
71164;SDS011;58859;55.132;-1.586;2024-03-07T13:45:55;22.13;;;10.90;;
71164;SDS011;58859;55.132;-1.586;2024-03-07T13:48:20;21.75;;;10.02;;
71164;SDS011;58859;55.132;-1.586;2024-03-07T13:50:47;23.60;;;10.07;;
71164;SDS011;58859;55.132;-1.586;2024-03-07T13:53:14;28.23;;;11.90;;
71164;SDS011;58859;55.132;-1.586;2024-03-07T14:14:41;23.23;;;10.95;;
71164;SDS011;58859;55.132;-1.586;2024-03-07T14:32:03;25.47;;;10.47;;
71164;SDS011;58859;55.132;-1.586;2024-03-07T14:37:19;21.33;;;10.50;;
71164;SDS011;58859;55.132;-1.586;2024-03-07T14:40:07;17.10;;;8.77;;
71164;SDS011;58859;55.132;-1.586;2024-03-07T14:42:42;22.77;;;9.05;;
71164;SDS011;58859;55.132;-1.586;2024-03-07T14:45:15;13.05;;;6.90;;
71164;SDS011;58859;55.132;-1.586;2024-03-07T14:47:45;34.80;;;13.10;;
71164;SDS011;58859;55.132;-1.586;2024-03-07T14:50:13;18.33;;;7.10;;
71164;SDS011;58859;55.132;-1.586;2024-03-07T14:52:41;22.73;;;10.17;;